Time;durP1;ratioP1;P1;durP2;ratioP2;P2;SDS_P1;SDS_P2;PMS_P1;PMS_P2;Temp;Humidity;BMP_temperature;BMP_pressure;BME280_temperature;BME280_humidity;BME280_pressure;Samples;Min_cycle;Max_cycle;Signal;HPM_P1;HPM_P2
2023/10/30 00:00:13;;;;;;;7.80;2.50;;;12.20;99.90;;;;;;5048635;28;20968;-64
2023/10/30 00:02:42;;;;;;;7.83;2.53;;;12.20;99.90;;;;;;5046371;28;20987;-65
2023/10/30 00:05:11;;;;;;;7.67;2.10;;;12.20;99.90;;;;;;5046768;28;20963;-63
2023/10/30 00:07:39;;;;;;;7.10;1.97;;;12.20;99.90;;;;;;5047797;28;20471;-64
2023/10/30 00:10:07;;;;;;;7.13;2.23;;;12.20;99.90;;;;;;5053257;28;20458;-64
2023/10/30 00:12:35;;;;;;;11.23;2.63;;;12.30;99.90;;;;;;5061656;28;20443;-64
2023/10/30 00:15:04;;;;;;;7.20;2.17;;;12.20;99.90;;;;;;5060003;28;21037;-66
2023/10/30 00:17:32;;;;;;;6.83;2.10;;;12.20;99.90;;;;;;5066202;28;20471;-63
2023/10/30 00:20:01;;;;;;;7.43;2.40;;;12.30;99.90;;;;;;5066401;28;20481;-63
2023/10/30 00:22:29;;;;;;;9.30;2.53;;;12.30;99.90;;;;;;5059996;28;20953;-64
2023/10/30 00:24:57;;;;;;;8.10;2.80;;;12.30;99.90;;;;;;5063996;28;20454;-63
2023/10/30 00:27:25;;;;;;;8.60;2.00;;;12.40;99.90;;;;;;5065554;28;20468;-63
2023/10/30 00:29:53;;;;;;;7.83;2.70;;;12.30;99.90;;;;;;5065714;28;20452;-63
2023/10/30 00:32:21;;;;;;;9.07;2.40;;;12.30;99.90;;;;;;5065869;28;20452;-64
2023/10/30 00:34:48;;;;;;;7.77;2.73;;;12.20;99.90;;;;;;5066195;28;20478;-65
2023/10/30 00:37:18;;;;;;;9.63;2.73;;;12.10;99.90;;;;;;5054743;28;20471;-64
2023/10/30 00:39:46;;;;;;;7.83;2.40;;;12.00;99.90;;;;;;5053101;28;20459;-64
2023/10/30 00:42:14;;;;;;;7.47;2.50;;;12.00;99.90;;;;;;5057235;28;20504;-64
2023/10/30 00:44:42;;;;;;;9.10;3.00;;;12.10;99.90;;;;;;5057161;28;20450;-64
2023/10/30 00:47:10;;;;;;;8.70;2.87;;;12.20;99.90;;;;;;5055040;28;20477;-64
2023/10/30 00:49:38;;;;;;;8.10;2.93;;;12.20;99.90;;;;;;5063300;28;20998;-64
2023/10/30 00:52:07;;;;;;;7.77;2.40;;;12.20;99.90;;;;;;5074878;28;20501;-64
2023/10/30 00:54:36;;;;;;;10.50;3.20;;;12.30;99.90;;;;;;5062617;28;20477;-64
2023/10/30 00:57:04;;;;;;;7.80;2.40;;;12.30;99.90;;;;;;5078668;28;20477;-64
2023/10/30 00:59:32;;;;;;;8.40;2.60;;;12.20;99.90;;;;;;5076305;28;20465;-64
2023/10/30 01:02:00;;;;;;;8.00;3.00;;;12.20;99.90;;;;;;5060500;28;20444;-64
2023/10/30 01:04:28;;;;;;;7.47;2.70;;;12.20;99.90;;;;;;5070315;28;20483;-63
2023/10/30 01:06:57;;;;;;;7.30;2.43;;;12.20;99.90;;;;;;5083556;28;20883;-64
2023/10/30 01:09:25;;;;;;;7.97;2.77;;;12.10;99.90;;;;;;5078638;28;20478;-64
2023/10/30 01:11:54;;;;;;;8.77;2.60;;;12.30;99.90;;;;;;5061503;28;20454;-64
2023/10/30 01:14:22;;;;;;;8.17;2.83;;;12.30;99.90;;;;;;5071420;28;20434;-63
2023/10/30 01:16:50;;;;;;;7.30;2.73;;;12.20;99.90;;;;;;5066248;28;20478;-64
2023/10/30 01:19:18;;;;;;;8.30;2.80;;;12.10;99.90;;;;;;5056124;28;20495;-63
2023/10/30 01:21:46;;;;;;;7.53;2.60;;;12.10;99.90;;;;;;5057077;28;20453;-64
2023/10/30 01:24:14;;;;;;;8.43;2.90;;;12.00;99.90;;;;;;5082294;28;20442;-68
2023/10/30 01:26:42;;;;;;;7.30;2.37;;;12.10;99.90;;;;;;5067851;28;20439;-64
2023/10/30 01:29:11;;;;;;;7.17;2.63;;;12.10;99.90;;;;;;5059819;28;20576;-65
2023/10/30 01:31:39;;;;;;;7.10;2.73;;;12.10;99.90;;;;;;5067672;28;20467;-64
2023/10/30 01:34:07;;;;;;;8.80;2.47;;;12.00;99.90;;;;;;5060580;28;20508;-64
2023/10/30 01:36:36;;;;;;;7.70;2.47;;;12.10;99.90;;;;;;5064714;28;20474;-64
2023/10/30 01:39:04;;;;;;;7.77;2.67;;;12.10;99.90;;;;;;5068192;28;20453;-64
2023/10/30 01:41:32;;;;;;;7.60;2.80;;;12.20;99.90;;;;;;5062897;28;20481;-64
2023/10/30 01:44:00;;;;;;;7.30;2.60;;;12.20;99.90;;;;;;5068922;28;20482;-63
2023/10/30 01:46:29;;;;;;;7.90;3.10;;;12.20;99.90;;;;;;5068333;28;20473;-63
2023/10/30 01:48:57;;;;;;;9.30;3.20;;;12.20;99.90;;;;;;5068610;28;20454;-63
2023/10/30 01:51:26;;;;;;;8.20;3.07;;;12.10;99.90;;;;;;5067437;28;20452;-63
2023/10/30 01:53:55;;;;;;;8.70;3.10;;;12.10;99.90;;;;;;5067457;28;20508;-63
2023/10/30 01:56:24;;;;;;;8.43;3.20;;;12.10;99.90;;;;;;5067820;28;20501;-64
2023/10/30 01:58:52;;;;;;;7.93;3.20;;;12.10;99.90;;;;;;5067871;28;20473;-63
2023/10/30 02:01:20;;;;;;;7.53;2.93;;;12.10;99.90;;;;;;5067498;28;20458;-64
2023/10/30 02:03:52;;;;;;;8.33;3.27;;;12.10;99.90;;;;;;5068272;28;20470;-63
2023/10/30 02:06:20;;;;;;;8.30;3.10;;;12.10;99.90;;;;;;5067799;28;20455;-64
2023/10/30 02:08:48;;;;;;;8.10;3.03;;;12.10;99.90;;;;;;5062425;28;20503;-64
2023/10/30 02:11:16;;;;;;;7.70;2.80;;;12.10;99.90;;;;;;5066375;28;20492;-65
2023/10/30 02:13:44;;;;;;;8.30;3.20;;;12.10;99.90;;;;;;5068395;28;20443;-64
2023/10/30 02:16:12;;;;;;;8.10;3.00;;;12.00;99.90;;;;;;5067719;28;21151;-64
2023/10/30 02:18:40;;;;;;;8.40;3.23;;;12.00;99.90;;;;;;5067953;28;20481;-64
2023/10/30 02:21:11;;;;;;;7.80;2.73;;;12.00;99.90;;;;;;5067464;28;20454;-64
2023/10/30 02:23:39;;;;;;;7.50;2.87;;;11.90;99.90;;;;;;5068037;28;20504;-64
2023/10/30 02:26:09;;;;;;;7.60;3.03;;;11.90;99.90;;;;;;5065547;28;20447;-64
2023/10/30 02:28:36;;;;;;;7.50;3.13;;;11.90;99.90;;;;;;5068092;28;20471;-64
2023/10/30 02:31:04;;;;;;;8.00;2.80;;;11.80;99.90;;;;;;5067408;28;20444;-64
2023/10/30 02:33:32;;;;;;;8.10;2.77;;;11.70;99.90;;;;;;5067862;28;20449;-64
2023/10/30 02:36:00;;;;;;;8.00;2.63;;;11.80;99.90;;;;;;5069492;28;20482;-64
2023/10/30 02:38:28;;;;;;;7.50;2.80;;;11.90;99.90;;;;;;5062967;28;20468;-64
2023/10/30 02:40:56;;;;;;;8.70;2.60;;;11.90;99.90;;;;;;5063676;28;20440;-64
2023/10/30 02:43:25;;;;;;;7.50;2.30;;;11.90;99.90;;;;;;5063409;28;20455;-64
2023/10/30 02:45:53;;;;;;;7.20;2.47;;;11.80;99.90;;;;;;5069417;28;20453;-64
2023/10/30 02:48:21;;;;;;;7.20;2.40;;;11.70;99.90;;;;;;5071145;28;20502;-64
2023/10/30 02:50:49;;;;;;;8.93;3.10;;;11.70;99.90;;;;;;5071100;28;20458;-64
2023/10/30 02:53:17;;;;;;;7.70;2.73;;;11.70;99.90;;;;;;5069765;28;20448;-63
2023/10/30 02:55:45;;;;;;;9.73;2.60;;;11.70;99.90;;;;;;5070802;28;20457;-63
2023/10/30 02:58:13;;;;;;;7.83;2.70;;;11.60;99.90;;;;;;5071166;28;20486;-63
2023/10/30 03:00:42;;;;;;;7.67;2.27;;;11.60;99.90;;;;;;5070644;28;20453;-64
2023/10/30 03:03:10;;;;;;;7.50;2.43;;;11.50;99.90;;;;;;5069319;28;20446;-63
2023/10/30 03:05:38;;;;;;;8.00;2.60;;;11.60;99.90;;;;;;5070150;28;20478;-63
2023/10/30 03:08:06;;;;;;;9.73;2.77;;;11.60;99.90;;;;;;5070796;28;20478;-63
2023/10/30 03:10:34;;;;;;;7.67;2.37;;;11.70;99.90;;;;;;5070413;28;20510;-63
2023/10/30 03:13:02;;;;;;;6.70;2.17;;;11.70;99.90;;;;;;5069891;28;20447;-64
2023/10/30 03:15:30;;;;;;;6.80;2.00;;;11.70;99.90;;;;;;5070160;28;20551;-63
2023/10/30 03:18:00;;;;;;;6.80;2.10;;;11.70;99.90;;;;;;5070599;28;20488;-63
2023/10/30 03:20:28;;;;;;;7.10;2.20;;;11.70;99.90;;;;;;5070652;28;20482;-63
2023/10/30 03:22:56;;;;;;;8.50;2.03;;;11.70;99.90;;;;;;5064277;28;20550;-64
2023/10/30 03:25:24;;;;;;;7.50;2.27;;;11.70;99.90;;;;;;5070256;28;20468;-64
2023/10/30 03:27:51;;;;;;;7.50;2.40;;;11.70;99.90;;;;;;5059358;28;20472;-63
2023/10/30 03:30:19;;;;;;;8.27;2.63;;;11.80;99.90;;;;;;5064779;28;20550;-63
2023/10/30 03:32:47;;;;;;;7.77;2.13;;;11.90;99.90;;;;;;5068970;28;20481;-63
2023/10/30 03:35:17;;;;;;;6.50;1.80;;;11.90;99.90;;;;;;5069630;28;20445;-64
2023/10/30 03:37:45;;;;;;;6.80;1.93;;;11.80;99.90;;;;;;5068246;28;21265;-64
2023/10/30 03:40:13;;;;;;;6.90;2.10;;;11.80;99.90;;;;;;5063457;28;20535;-64
2023/10/30 03:42:41;;;;;;;7.77;2.50;;;11.80;99.90;;;;;;5071410;28;20442;-63
2023/10/30 03:45:09;;;;;;;7.60;2.50;;;11.70;99.90;;;;;;5071963;28;20477;-63
2023/10/30 03:47:37;;;;;;;7.33;2.27;;;11.70;99.90;;;;;;5072414;28;20459;-64
2023/10/30 03:50:08;;;;;;;8.00;2.60;;;11.60;99.90;;;;;;5072446;28;20861;-63
2023/10/30 03:52:38;;;;;;;7.33;1.97;;;11.60;99.90;;;;;;5069074;28;20446;-63
2023/10/30 03:55:09;;;;;;;8.40;2.40;;;11.50;99.90;;;;;;5062180;28;20454;-63
2023/10/30 03:57:39;;;;;;;6.90;2.10;;;11.50;99.90;;;;;;5069907;28;20475;-63
2023/10/30 04:00:08;;;;;;;8.20;2.30;;;11.40;99.90;;;;;;5069496;28;20464;-63
2023/10/30 04:02:36;;;;;;;6.77;2.17;;;11.50;99.90;;;;;;5068862;28;20831;-64
2023/10/30 04:05:05;;;;;;;7.07;1.90;;;11.40;99.90;;;;;;5069406;28;20454;-64
2023/10/30 04:07:32;;;;;;;11.27;2.60;;;11.30;99.90;;;;;;5034203;28;20976;-63
2023/10/30 04:10:02;;;;;;;9.23;2.37;;;11.20;99.90;;;;;;5069405;28;20451;-63
2023/10/30 04:12:30;;;;;;;6.80;2.00;;;11.20;99.90;;;;;;5068013;28;20459;-63
2023/10/30 04:14:58;;;;;;;8.33;2.13;;;11.10;99.90;;;;;;5069647;28;20454;-63
2023/10/30 04:17:26;;;;;;;7.97;2.17;;;11.00;99.90;;;;;;5069104;28;20493;-64
2023/10/30 04:19:54;;;;;;;8.63;2.03;;;10.90;99.90;;;;;;5068881;28;20465;-63
2023/10/30 04:22:22;;;;;;;7.60;1.80;;;10.90;99.90;;;;;;5068597;28;20447;-63
2023/10/30 04:24:50;;;;;;;9.80;1.83;;;10.80;99.90;;;;;;5069311;28;20454;-64
2023/10/30 04:27:19;;;;;;;8.30;2.07;;;10.90;99.90;;;;;;5067319;28;20823;-64
2023/10/30 04:29:48;;;;;;;7.57;1.80;;;10.90;99.90;;;;;;5065603;28;20450;-63
2023/10/30 04:32:16;;;;;;;7.83;2.00;;;11.00;99.90;;;;;;5060383;28;20443;-64
2023/10/30 04:34:47;;;;;;;7.70;1.97;;;11.00;99.90;;;;;;5069119;28;20454;-63
2023/10/30 04:37:15;;;;;;;7.23;1.40;;;10.90;99.90;;;;;;5068854;28;20517;-63
2023/10/30 04:39:43;;;;;;;6.67;1.43;;;10.90;99.90;;;;;;5069371;28;20460;-63
2023/10/30 04:42:11;;;;;;;7.70;1.57;;;11.00;99.90;;;;;;5068021;28;20450;-64
2023/10/30 04:44:40;;;;;;;6.73;1.70;;;11.00;99.90;;;;;;5066294;28;20526;-63
2023/10/30 04:47:08;;;;;;;6.50;1.57;;;10.90;99.90;;;;;;5067777;28;20836;-63
2023/10/30 04:49:37;;;;;;;6.53;1.30;;;10.90;99.90;;;;;;5069243;28;20451;-63
2023/10/30 04:52:06;;;;;;;7.00;1.50;;;10.90;99.90;;;;;;5067835;28;20466;-63
2023/10/30 04:54:34;;;;;;;6.63;1.50;;;10.80;99.90;;;;;;5068852;28;20813;-63
2023/10/30 04:57:02;;;;;;;6.63;1.70;;;10.80;99.90;;;;;;5067499;28;20466;-64
2023/10/30 04:59:30;;;;;;;7.10;1.80;;;10.70;99.90;;;;;;5068849;28;20457;-64
2023/10/30 05:02:01;;;;;;;7.20;2.40;;;10.70;99.90;;;;;;5060874;28;20452;-64
2023/10/30 05:04:29;;;;;;;9.50;1.60;;;10.70;99.90;;;;;;5069577;28;20473;-64
2023/10/30 05:06:57;;;;;;;7.17;1.87;;;10.70;99.90;;;;;;5068380;28;20561;-64
2023/10/30 05:09:25;;;;;;;7.57;1.90;;;10.80;99.90;;;;;;5068833;28;20474;-64
2023/10/30 05:11:54;;;;;;;8.40;1.97;;;11.00;99.90;;;;;;5067904;28;20546;-64
2023/10/30 05:14:22;;;;;;;6.93;1.60;;;10.90;99.90;;;;;;5068496;28;20442;-64
2023/10/30 05:16:50;;;;;;;6.90;1.90;;;11.00;99.90;;;;;;5068110;28;20473;-64
2023/10/30 05:19:19;;;;;;;7.23;1.80;;;11.10;99.90;;;;;;5068287;28;20893;-64
2023/10/30 05:21:47;;;;;;;7.07;2.37;;;11.10;99.90;;;;;;5067755;28;20447;-64
2023/10/30 05:24:14;;;;;;;8.03;1.70;;;11.10;99.90;;;;;;5060786;28;20481;-64
2023/10/30 05:26:42;;;;;;;6.07;1.10;;;11.00;99.90;;;;;;5068072;28;20451;-64
2023/10/30 05:29:10;;;;;;;6.97;1.40;;;11.00;99.90;;;;;;5068976;28;20442;-64
2023/10/30 05:31:38;;;;;;;7.37;1.90;;;10.90;99.90;;;;;;5067689;28;20442;-64
2023/10/30 05:34:06;;;;;;;6.77;1.40;;;10.80;99.90;;;;;;5067704;28;20450;-64
2023/10/30 05:36:35;;;;;;;8.00;1.83;;;10.70;99.90;;;;;;5068292;28;20529;-64
2023/10/30 05:39:04;;;;;;;7.47;1.77;;;10.60;99.90;;;;;;5068379;28;20567;-64
2023/10/30 05:41:31;;;;;;;7.23;1.43;;;10.50;99.90;;;;;;5068323;28;20462;-64
2023/10/30 05:43:59;;;;;;;8.80;1.93;;;10.40;99.90;;;;;;5072624;28;20504;-65
2023/10/30 05:46:27;;;;;;;6.70;1.70;;;10.30;99.90;;;;;;5071330;28;20479;-64
2023/10/30 05:48:55;;;;;;;6.77;1.93;;;10.20;99.90;;;;;;5068250;28;20490;-64
2023/10/30 05:51:23;;;;;;;7.70;2.03;;;10.20;99.90;;;;;;5057943;28;20455;-64
2023/10/30 05:53:53;;;;;;;7.90;2.20;;;10.20;99.90;;;;;;5067639;28;20539;-64
2023/10/30 05:56:20;;;;;;;8.40;1.90;;;10.30;99.90;;;;;;5058090;28;20817;-64
2023/10/30 05:58:48;;;;;;;7.30;2.00;;;10.30;99.90;;;;;;5060923;28;20572;-63
2023/10/30 06:01:16;;;;;;;7.37;2.17;;;10.30;99.90;;;;;;5058700;28;20441;-64
2023/10/30 06:03:44;;;;;;;6.87;1.77;;;10.20;99.90;;;;;;5068416;28;20554;-63
2023/10/30 06:06:12;;;;;;;7.10;1.77;;;10.10;99.90;;;;;;5066639;28;20468;-64
2023/10/30 06:08:40;;;;;;;7.63;2.47;;;9.90;99.90;;;;;;5070287;28;20552;-64
2023/10/30 06:11:10;;;;;;;8.00;2.60;;;9.80;99.90;;;;;;5071124;28;20514;-64
2023/10/30 06:13:38;;;;;;;8.07;2.50;;;9.70;99.90;;;;;;5067271;28;20463;-64
2023/10/30 06:16:06;;;;;;;8.03;2.70;;;9.70;99.90;;;;;;5071270;28;21027;-64
2023/10/30 06:18:34;;;;;;;8.20;2.27;;;9.60;99.90;;;;;;5067866;28;21041;-64
2023/10/30 06:21:03;;;;;;;10.93;2.60;;;9.70;99.90;;;;;;5069809;28;20453;-64
2023/10/30 06:23:30;;;;;;;8.33;3.00;;;9.70;99.90;;;;;;5071405;28;20543;-64
2023/10/30 06:25:58;;;;;;;7.43;2.27;;;9.70;99.90;;;;;;5070564;28;20995;-64
2023/10/30 06:28:28;;;;;;;8.00;2.30;;;9.70;99.90;;;;;;5070735;28;20469;-63
2023/10/30 06:30:56;;;;;;;8.40;2.50;;;9.70;99.90;;;;;;5070973;28;20921;-64
2023/10/30 06:33:24;;;;;;;9.80;2.30;;;9.80;99.90;;;;;;5070333;28;20907;-64
2023/10/30 06:35:58;;;;;;;9.33;2.50;;;9.90;99.90;;;;;;5070859;28;20531;-63
2023/10/30 06:38:26;;;;;;;8.80;2.77;;;10.00;99.90;;;;;;5064146;28;20502;-64
2023/10/30 06:40:54;;;;;;;9.17;2.40;;;10.00;99.90;;;;;;5070736;28;20444;-64
2023/10/30 06:43:22;;;;;;;9.10;2.40;;;10.00;99.90;;;;;;5070653;28;20856;-64
2023/10/30 06:45:59;;;;;;;8.90;2.27;;;10.00;99.90;;;;;;5070150;28;20489;-63
2023/10/30 06:48:27;;;;;;;8.40;2.77;;;10.10;99.90;;;;;;5064215;28;20451;-64
2023/10/30 06:50:55;;;;;;;8.03;3.30;;;10.10;99.90;;;;;;5070904;28;20443;-64
2023/10/30 06:53:23;;;;;;;10.07;3.40;;;10.10;99.90;;;;;;5070556;28;20497;-63
2023/10/30 06:55:51;;;;;;;8.63;2.70;;;10.00;99.90;;;;;;5070691;28;20439;-64
2023/10/30 06:58:21;;;;;;;9.40;2.73;;;10.00;99.90;;;;;;5062626;28;20491;-64
2023/10/30 07:00:50;;;;;;;9.80;3.30;;;9.90;99.90;;;;;;5070302;28;20544;-64
2023/10/30 07:03:18;;;;;;;8.50;2.93;;;9.90;99.90;;;;;;5062325;28;20443;-64
2023/10/30 07:05:47;;;;;;;8.20;2.93;;;9.90;99.90;;;;;;5070725;28;20459;-64
2023/10/30 07:08:15;;;;;;;8.50;2.60;;;10.00;99.90;;;;;;5067677;28;20473;-65
2023/10/30 07:10:43;;;;;;;8.87;3.43;;;10.10;99.90;;;;;;5070676;28;20451;-64
2023/10/30 07:13:10;;;;;;;8.97;3.47;;;10.20;99.90;;;;;;5070028;28;21033;-65
2023/10/30 07:15:38;;;;;;;8.43;3.50;;;10.30;99.90;;;;;;5070743;28;20442;-65
2023/10/30 07:18:08;;;;;;;8.47;3.80;;;10.40;99.90;;;;;;5067699;28;20468;-64
2023/10/30 07:20:36;;;;;;;8.87;3.27;;;10.60;99.90;;;;;;5069909;28;20453;-64
2023/10/30 07:23:04;;;;;;;8.93;3.63;;;10.60;99.90;;;;;;5069706;28;20448;-64
2023/10/30 07:25:32;;;;;;;8.67;3.77;;;10.70;99.90;;;;;;5070127;28;20545;-64
2023/10/30 07:28:00;;;;;;;7.67;2.83;;;10.80;99.90;;;;;;5070565;28;21107;-65
2023/10/30 07:30:28;;;;;;;9.43;3.33;;;10.90;99.90;;;;;;5070502;28;20945;-64
2023/10/30 07:32:56;;;;;;;8.37;3.40;;;11.00;99.90;;;;;;5069654;28;20445;-63
2023/10/30 07:35:25;;;;;;;7.60;2.70;;;11.00;99.90;;;;;;5063036;28;21010;-63
2023/10/30 07:37:53;;;;;;;8.30;3.23;;;11.10;99.90;;;;;;5070161;28;20960;-64
2023/10/30 07:40:25;;;;;;;7.27;2.60;;;11.00;99.90;;;;;;5062190;28;21050;-64
2023/10/30 07:42:54;;;;;;;8.90;3.30;;;11.00;99.90;;;;;;5069420;28;20485;-65
2023/10/30 07:45:24;;;;;;;9.43;3.57;;;11.10;99.90;;;;;;5070049;28;20440;-65
2023/10/30 07:47:52;;;;;;;8.37;2.90;;;11.10;99.90;;;;;;5066019;28;20559;-64
2023/10/30 07:50:20;;;;;;;8.10;2.93;;;11.30;99.90;;;;;;5061765;28;20443;-65
2023/10/30 07:52:51;;;;;;;8.20;2.67;;;11.40;99.90;;;;;;5069054;28;20454;-64
2023/10/30 07:55:18;;;;;;;9.10;2.60;;;11.50;99.90;;;;;;5062229;28;20446;-64
2023/10/30 07:57:47;;;;;;;9.67;2.87;;;11.70;99.90;;;;;;5066755;28;20999;-65
2023/10/30 08:00:16;;;;;;;12.33;3.03;;;11.80;99.90;;;;;;5069469;28;20531;-63
2023/10/30 08:02:46;;;;;;;7.67;3.00;;;11.90;99.90;;;;;;5058320;28;20453;-63
2023/10/30 08:05:14;;;;;;;9.13;2.90;;;12.00;99.90;;;;;;5069592;28;20438;-64
2023/10/30 08:07:44;;;;;;;7.33;2.43;;;12.10;99.90;;;;;;5069879;28;20459;-64
2023/10/30 08:10:13;;;;;;;8.67;2.90;;;12.10;99.90;;;;;;5069250;28;20449;-64
2023/10/30 08:12:41;;;;;;;8.77;2.70;;;12.20;99.90;;;;;;5063685;28;20471;-64
2023/10/30 08:15:10;;;;;;;8.57;2.90;;;12.30;99.90;;;;;;5067240;28;20448;-62
2023/10/30 08:17:38;;;;;;;8.97;3.80;;;12.40;99.90;;;;;;5061879;28;20613;-63
2023/10/30 08:20:06;;;;;;;9.17;3.07;;;12.40;99.90;;;;;;5054895;28;20490;-63
2023/10/30 08:22:34;;;;;;;9.73;3.50;;;12.50;99.90;;;;;;5068397;28;20451;-63
2023/10/30 08:25:03;;;;;;;9.83;3.57;;;12.60;99.90;;;;;;5069296;28;20858;-60
2023/10/30 08:27:33;;;;;;;8.37;3.10;;;12.60;99.90;;;;;;5068785;28;20462;-63
2023/10/30 08:30:02;;;;;;;8.40;3.43;;;12.70;99.90;;;;;;5068880;28;20448;-64
2023/10/30 08:32:30;;;;;;;10.57;4.00;;;12.80;99.90;;;;;;5060319;28;20463;-65
2023/10/30 08:35:01;;;;;;;11.43;3.20;;;12.90;99.90;;;;;;5062571;28;20949;-64
2023/10/30 08:37:29;;;;;;;9.70;3.83;;;13.00;99.90;;;;;;5068428;28;20494;-64
2023/10/30 08:39:57;;;;;;;10.40;3.43;;;13.10;99.90;;;;;;5068735;28;20476;-64
2023/10/30 08:42:25;;;;;;;9.53;3.23;;;13.20;99.90;;;;;;5067449;28;20448;-63
2023/10/30 08:44:55;;;;;;;9.20;3.60;;;13.20;99.90;;;;;;5068399;28;20450;-63
2023/10/30 08:47:23;;;;;;;8.13;3.23;;;13.30;99.90;;;;;;5061819;28;20487;-64
2023/10/30 08:49:51;;;;;;;9.10;4.00;;;13.40;99.90;;;;;;5068731;28;20472;-64
2023/10/30 08:52:19;;;;;;;10.63;4.10;;;13.40;99.90;;;;;;5067902;28;20451;-65
2023/10/30 08:54:47;;;;;;;8.40;3.80;;;13.50;99.90;;;;;;5068893;28;20537;-64
2023/10/30 08:57:19;;;;;;;8.20;3.50;;;13.50;99.90;;;;;;5058927;28;20476;-65
2023/10/30 08:59:47;;;;;;;8.20;3.33;;;13.70;99.90;;;;;;5067023;28;20523;-64
2023/10/30 09:02:17;;;;;;;9.57;4.32;;;13.80;99.90;;;;;;5064620;28;20453;-65
2023/10/30 09:04:45;;;;;;;9.30;3.50;;;13.90;99.90;;;;;;5067198;28;20930;-65
2023/10/30 09:07:13;;;;;;;10.20;3.77;;;14.00;99.90;;;;;;5067142;28;20499;-64
2023/10/30 09:09:41;;;;;;;10.53;3.70;;;14.10;99.90;;;;;;5066958;28;20454;-65
2023/10/30 09:12:10;;;;;;;8.23;3.13;;;14.20;99.90;;;;;;5067171;28;20589;-66
2023/10/30 09:14:38;;;;;;;10.47;3.47;;;14.40;99.90;;;;;;5068374;28;20451;-67
2023/10/30 09:17:08;;;;;;;11.30;4.63;;;14.40;99.90;;;;;;5064482;28;20528;-64
2023/10/30 09:19:38;;;;;;;8.70;3.40;;;14.50;99.90;;;;;;5068342;28;20475;-64
2023/10/30 09:22:06;;;;;;;9.03;3.37;;;14.60;99.90;;;;;;5067161;28;20475;-67
2023/10/30 09:24:34;;;;;;;8.43;3.60;;;14.80;99.90;;;;;;5068489;28;20447;-66
2023/10/30 09:27:02;;;;;;;8.23;3.33;;;14.90;99.90;;;;;;5068218;28;20860;-65
2023/10/30 09:29:30;;;;;;;10.80;3.40;;;15.00;99.90;;;;;;5061782;28;20455;-66
2023/10/30 09:31:59;;;;;;;7.90;3.10;;;15.30;99.90;;;;;;5061724;28;20463;-67
2023/10/30 09:34:27;;;;;;;8.00;2.73;;;15.50;99.90;;;;;;5068284;28;20530;-66
2023/10/30 09:36:58;;;;;;;9.37;3.10;;;15.70;99.90;;;;;;5065119;28;24116;-66
2023/10/30 09:54:13;;;;;;;9.20;2.90;;;16.20;99.90;;;;;;5095187;27;21120;-66
2023/10/30 09:56:43;;;;;;;7.50;2.50;;;17.10;99.90;;;;;;5063503;28;20830;-69
2023/10/30 09:59:13;;;;;;;9.73;3.00;;;17.20;99.90;;;;;;5063210;28;20466;-67
2023/10/30 10:01:41;;;;;;;7.57;2.10;;;17.20;99.90;;;;;;5064208;28;20452;-67
2023/10/30 10:04:09;;;;;;;6.93;2.23;;;17.30;99.90;;;;;;5063235;28;20463;-67
2023/10/30 10:06:40;;;;;;;7.07;2.33;;;17.30;99.90;;;;;;5064251;28;20448;-66
2023/10/30 10:09:08;;;;;;;7.27;2.50;;;17.30;99.90;;;;;;5062982;28;21018;-67
2023/10/30 10:11:38;;;;;;;7.70;2.40;;;17.40;99.90;;;;;;5061703;28;20443;-67
2023/10/30 10:14:06;;;;;;;9.23;2.43;;;17.50;99.90;;;;;;5057159;28;20478;-72
2023/10/30 10:16:36;;;;;;;8.00;2.30;;;17.30;99.90;;;;;;5063284;28;20451;-64
2023/10/30 10:19:19;;;;;;;6.80;2.00;;;17.20;99.90;;;;;;5061870;28;20451;-65
2023/10/30 10:21:48;;;;;;;7.73;2.20;;;17.30;99.90;;;;;;5062179;28;20435;-65
2023/10/30 10:24:28;;;;;;;6.80;1.93;;;17.70;99.90;;;;;;5063366;28;20534;-65
2023/10/30 10:27:02;;;;;;;7.47;2.20;;;17.90;99.90;;;;;;5059685;28;20471;-65
2023/10/30 10:29:30;;;;;;;8.00;2.57;;;18.10;99.90;;;;;;5063767;28;20611;-66
2023/10/30 10:31:59;;;;;;;7.47;2.40;;;18.50;99.90;;;;;;5064019;28;20482;-66
2023/10/30 10:34:30;;;;;;;7.37;1.90;;;18.70;99.90;;;;;;5063874;28;20463;-66
2023/10/30 10:36:59;;;;;;;6.53;1.70;;;18.70;99.90;;;;;;5064701;28;20445;-67
2023/10/30 10:39:27;;;;;;;6.67;1.73;;;18.80;99.90;;;;;;5063665;28;20877;-64
2023/10/30 10:41:56;;;;;;;6.67;1.40;;;18.70;99.90;;;;;;5056258;28;20447;-65
2023/10/30 10:44:26;;;;;;;6.80;1.60;;;18.60;99.90;;;;;;5061870;28;20470;-65
2023/10/30 10:46:59;;;;;;;6.63;1.43;;;18.50;99.90;;;;;;5058262;28;20451;-65
2023/10/30 10:49:27;;;;;;;7.43;1.47;;;18.40;99.90;;;;;;5053616;28;20936;-68
2023/10/30 10:51:56;;;;;;;7.20;1.40;;;18.10;99.90;;;;;;5058748;28;20455;-65
2023/10/30 10:54:27;;;;;;;6.40;1.33;;;18.00;99.90;;;;;;5045646;28;20532;-64
2023/10/30 10:56:57;;;;;;;6.67;1.13;;;17.90;99.90;;;;;;5047343;28;20518;-64
2023/10/30 10:59:28;;;;;;;6.40;1.10;;;17.70;99.90;;;;;;5047304;28;20458;-64
2023/10/30 11:01:56;;;;;;;6.10;1.17;;;17.70;99.90;;;;;;5044929;28;20509;-64
2023/10/30 11:04:24;;;;;;;7.17;1.27;;;17.60;99.90;;;;;;5045260;28;20555;-64
2023/10/30 11:06:57;;;;;;;7.17;1.20;;;17.50;99.90;;;;;;5046811;28;20523;-64
2023/10/30 11:09:35;;;;;;;7.70;1.40;;;17.50;99.90;;;;;;5045848;28;20474;-64
2023/10/30 11:12:12;;;;;;;7.37;1.20;;;17.50;99.90;;;;;;5042779;28;20468;-65
2023/10/30 11:14:49;;;;;;;6.20;1.13;;;17.50;99.90;;;;;;5043170;28;20851;-65
2023/10/30 11:17:17;;;;;;;7.87;1.10;;;17.50;99.90;;;;;;5046597;28;20481;-64
2023/10/30 11:19:45;;;;;;;6.20;1.10;;;17.40;99.90;;;;;;5044936;28;21030;-65
2023/10/30 11:22:36;;;;;;;6.70;1.20;;;17.40;99.90;;;;;;5046371;28;20454;-64
2023/10/30 11:25:28;;;;;;;7.70;1.00;;;17.30;99.90;;;;;;5044725;28;20597;-65
2023/10/30 11:27:58;;;;;;;6.10;1.13;;;17.10;99.90;;;;;;5043732;28;20463;-65
2023/10/30 11:30:27;;;;;;;7.97;1.37;;;17.10;99.90;;;;;;5045486;28;20804;-66
2023/10/30 11:32:58;;;;;;;6.50;0.90;;;17.20;99.90;;;;;;5042157;28;20770;-65
2023/10/30 11:35:30;;;;;;;6.17;0.90;;;17.20;99.90;;;;;;5043856;28;20483;-65
2023/10/30 11:37:58;;;;;;;6.20;1.20;;;17.10;99.90;;;;;;5046879;28;20437;-65
2023/10/30 11:40:26;;;;;;;6.13;1.03;;;17.10;99.90;;;;;;5043438;28;20456;-65
2023/10/30 11:42:57;;;;;;;6.20;1.00;;;17.00;99.90;;;;;;5045994;28;20451;-65
2023/10/30 11:45:28;;;;;;;6.67;1.07;;;16.80;99.90;;;;;;5042154;28;20472;-65
2023/10/30 11:47:59;;;;;;;6.30;1.10;;;16.70;99.90;;;;;;5045046;28;20452;-65
2023/10/30 11:50:28;;;;;;;6.17;0.87;;;16.60;99.90;;;;;;5043022;28;20456;-66
2023/10/30 11:52:59;;;;;;;7.60;1.20;;;16.50;99.90;;;;;;5042202;28;20488;-65
2023/10/30 11:55:30;;;;;;;6.87;1.10;;;16.40;99.90;;;;;;5044636;28;20552;-65
2023/10/30 11:57:59;;;;;;;6.73;1.50;;;16.30;99.90;;;;;;5045893;28;20464;-65
2023/10/30 12:00:30;;;;;;;6.67;1.10;;;16.30;99.90;;;;;;5045304;28;20542;-66
2023/10/30 12:02:58;;;;;;;6.10;1.00;;;16.30;99.90;;;;;;5041358;28;20458;-65
2023/10/30 12:05:27;;;;;;;6.40;1.30;;;16.20;99.90;;;;;;5044966;28;20516;-67
2023/10/30 12:07:55;;;;;;;6.30;1.47;;;16.20;99.90;;;;;;5046503;28;20526;-65
2023/10/30 12:10:26;;;;;;;6.83;1.70;;;16.30;99.90;;;;;;5045492;28;20547;-64
2023/10/30 12:12:54;;;;;;;6.97;1.37;;;16.20;99.90;;;;;;5044036;28;20519;-65
2023/10/30 12:15:23;;;;;;;5.90;1.10;;;16.20;99.90;;;;;;5045363;28;20460;-65
2023/10/30 12:17:52;;;;;;;5.90;1.20;;;16.20;99.90;;;;;;5045703;28;20436;-66
2023/10/30 12:20:21;;;;;;;7.60;1.07;;;16.20;99.90;;;;;;5045999;28;20435;-65
2023/10/30 12:22:49;;;;;;;6.10;1.00;;;16.30;99.90;;;;;;5044642;28;20476;-66
2023/10/30 12:25:18;;;;;;;6.40;0.97;;;16.50;99.90;;;;;;5045669;28;20986;-66
2023/10/30 12:27:46;;;;;;;6.73;1.10;;;16.70;99.90;;;;;;5044816;28;20438;-66
2023/10/30 12:30:16;;;;;;;6.17;1.00;;;17.00;99.90;;;;;;5043969;28;20831;-66
2023/10/30 12:32:55;;;;;;;8.10;1.50;;;17.10;99.90;;;;;;5044196;28;20444;-66
2023/10/30 12:35:23;;;;;;;7.60;1.40;;;17.20;99.90;;;;;;5043640;28;20464;-66
2023/10/30 12:37:51;;;;;;;6.40;1.23;;;17.40;99.90;;;;;;5044430;28;20498;-66
2023/10/30 12:40:19;;;;;;;7.10;1.23;;;17.60;99.90;;;;;;5045479;28;20432;-65
2023/10/30 12:42:48;;;;;;;6.27;1.10;;;17.70;99.90;;;;;;5045562;28;20432;-66
2023/10/30 12:45:18;;;;;;;6.40;1.10;;;17.70;99.90;;;;;;5044478;28;20470;-66
2023/10/30 12:47:48;;;;;;;6.10;1.13;;;17.70;99.90;;;;;;5044435;28;20440;-65
2023/10/30 12:50:18;;;;;;;7.20;1.20;;;17.70;99.90;;;;;;5044547;28;20971;-65
2023/10/30 12:52:46;;;;;;;7.20;1.40;;;17.60;99.90;;;;;;5046204;28;20440;-66
2023/10/30 12:55:14;;;;;;;5.97;1.07;;;17.60;99.90;;;;;;5043467;28;20551;-66
2023/10/30 12:57:42;;;;;;;6.13;1.33;;;17.60;99.90;;;;;;5047712;28;20440;-66
2023/10/30 13:00:12;;;;;;;7.13;1.33;;;17.70;99.90;;;;;;5049199;28;20446;-66
2023/10/30 13:02:40;;;;;;;8.80;1.10;;;17.70;99.90;;;;;;5047939;28;20851;-66
2023/10/30 13:05:09;;;;;;;7.63;1.70;;;17.70;99.90;;;;;;5048717;28;20467;-65
2023/10/30 13:07:40;;;;;;;8.10;1.53;;;17.80;99.90;;;;;;5049414;28;20462;-65
2023/10/30 13:10:09;;;;;;;6.27;1.30;;;17.80;99.90;;;;;;5049243;28;20801;-65